Hlavní strana
METAR-TAF:

METAR-TAF

Letiště :

Letiště Teherán-Mehrabád

Teherán, Írán

zeměpisná šířka: 35-41N, zeměpisná délka: 051-21E, výška: 1204 m

Aktuální stav počasí

Zpráva byla vytvořena před 23 minutami, v 15:00 UTC
Západní vítr 12 kt
Teplota 22°C
Vlhkost vzduchu 20%
Tlak 1020 hPa
Viditelnost 10 km a více
Polojasno ve výšce 3500 ft

METAR: OIII 151500Z 28012KT 9999 SCT035 22/M02 Q1019 A3011 NOSIG

Čas: 18:53 (15:23 UTC)

Předpověď počasí

Zpráva byla vytvořena před 4 hodinami a 23 minutami, v 11:00 UTC
Předpověď platná od 15 v 12 UTC do 16 v 18 UTC
Západoseverozápadní vítr 6 kt
Viditelnost: 7000 m
Skoro jasno ve výšce 4000 ft
Dočasný
od 15 v 12 UTC do 15 v 18 UTC
Západoseverozápadní vítr 19 kt
Skoro jasno ve výšce 3000 ft, Cumulonimbus.
Polojasno ve výšce 4000 ft
Oblačno až skoro zataženo ve výšce 9000 ft
Změna
od 15 v 18 UTC do 15 v 20 UTC
Jihovýchodní vítr 12 kt

TAF: OIII 151100Z 1512/1618 30003MPS 7000 FEW040 TEMPO 1512/1518 30010MPS FEW030CB SCT040 BKN090 BECMG 1518/1520 14006MPS

Stav a předpovědi počasí z více než 4 000 letišť (zprávy METAR a TAF).

Červené a žluté tečky na mapě představují dostupné meteorologické stanice.

Když kurzor umístíte na tečku, zobrazí se název stanice.

Pak kliknutím zobrazíte stav a předpověď počasí.

Chcete-li změnit mapu, kliknutím na zelené tlačítko se znaménkem +mapu přiblížíte, kliknutím na zelené tlačítko se znaménkem – mapu oddálíte a kliknutím na zelené šipky přejdete na sousední mapy.


METAR-TAF: